createdAt,value
2018-01-10T00:00:06.830Z,18.90
2018-01-10T00:02:35.122Z,17.80
2018-01-10T00:05:02.645Z,19.87
2018-01-10T00:07:30.706Z,18.43
2018-01-10T00:09:59.188Z,17.40
2018-01-10T00:12:27.489Z,18.70
2018-01-10T00:14:55.787Z,18.00
2018-01-10T00:17:24.081Z,16.40
2018-01-10T00:19:52.371Z,17.23
2018-01-10T00:22:20.669Z,16.57
2018-01-10T00:24:49.056Z,16.07
2018-01-10T00:27:17.355Z,16.37
2018-01-10T00:29:45.678Z,17.90
2018-01-10T00:32:14.004Z,17.40
2018-01-10T00:34:41.512Z,17.10
2018-01-10T00:37:09.444Z,17.57
2018-01-10T00:39:37.720Z,16.87
2018-01-10T00:42:06.005Z,16.73
2018-01-10T00:44:34.309Z,17.37
2018-01-10T00:47:02.584Z,18.00
2018-01-10T00:49:30.894Z,18.53
2018-01-10T00:51:58.404Z,16.47
2018-01-10T00:54:26.339Z,16.73
2018-01-10T00:56:54.713Z,17.70
2018-01-10T00:59:23.194Z,16.43
2018-01-10T01:01:51.480Z,15.83
2018-01-10T01:04:19.768Z,17.20
2018-01-10T01:06:48.044Z,15.53
2018-01-10T01:09:16.490Z,17.30
2018-01-10T01:11:44.765Z,17.03
2018-01-10T01:14:13.076Z,17.30
2018-01-10T01:16:41.366Z,15.97
2018-01-10T01:19:09.908Z,17.23
2018-01-10T01:21:38.201Z,18.47
2018-01-10T01:24:06.522Z,17.23
2018-01-10T01:26:34.810Z,16.93
2018-01-10T01:29:03.901Z,16.93
2018-01-10T01:31:31.414Z,16.60
2018-01-10T01:33:58.951Z,16.70
2018-01-10T01:36:26.861Z,19.60
2018-01-10T01:38:55.165Z,16.80
2018-01-10T01:41:23.445Z,18.23
2018-01-10T01:43:51.741Z,17.73
2018-01-10T01:46:20.029Z,16.73
2018-01-10T01:48:48.334Z,15.60
2018-01-10T01:51:15.849Z,17.50
2018-01-10T01:53:43.788Z,15.90
2018-01-10T01:56:12.077Z,15.90
2018-01-10T01:58:39.653Z,16.40
2018-01-10T02:01:07.918Z,16.80
2018-01-10T02:03:35.832Z,16.87
2018-01-10T02:06:04.128Z,17.10
2018-01-10T02:08:32.504Z,16.63
2018-01-10T02:11:00.803Z,17.10
2018-01-10T02:13:29.119Z,16.63
2018-01-10T02:15:57.437Z,16.97
2018-01-10T02:18:25.751Z,17.27
2018-01-10T02:20:54.788Z,16.60
2018-01-10T02:23:22.701Z,14.80
2018-01-10T02:25:51.000Z,16.10
2018-01-10T02:28:19.281Z,15.60
2018-01-10T02:30:47.704Z,16.20
2018-01-10T02:33:15.989Z,15.50
2018-01-10T02:35:44.279Z,15.13
2018-01-10T02:38:12.548Z,15.27
2018-01-10T02:40:40.848Z,16.23
2018-01-10T02:43:09.125Z,14.90
2018-01-10T02:45:36.652Z,13.73
2018-01-10T02:48:04.561Z,15.90
2018-01-10T02:50:32.851Z,16.23
2018-01-10T02:53:01.130Z,15.10
2018-01-10T02:55:28.671Z,14.40
2018-01-10T02:57:56.590Z,15.73
2018-01-10T03:00:25.034Z,14.80
2018-01-10T03:02:53.311Z,15.43
2018-01-10T03:05:22.356Z,14.50
2018-01-10T03:07:49.876Z,16.60
2018-01-10T03:10:18.181Z,15.70
2018-01-10T03:12:46.483Z,14.40
2018-01-10T03:15:14.015Z,15.20
2018-01-10T03:17:41.928Z,14.07
2018-01-10T03:20:10.226Z,16.33
2018-01-10T03:22:38.505Z,14.27
2018-01-10T03:25:06.814Z,15.23
2018-01-10T03:27:35.092Z,15.23
2018-01-10T03:30:02.648Z,15.10
2018-01-10T03:32:30.560Z,14.70
2018-01-10T03:34:58.849Z,13.73
2018-01-10T03:37:27.213Z,17.30
2018-01-10T03:39:55.499Z,15.23
2018-01-10T03:42:23.809Z,15.13
2018-01-10T03:44:51.317Z,15.47
2018-01-10T03:47:19.247Z,13.50
2018-01-10T03:49:47.520Z,14.30
2018-01-10T03:52:15.949Z,15.17
2018-01-10T03:54:44.234Z,15.50
2018-01-10T03:57:12.533Z,14.13
2018-01-10T03:59:40.885Z,13.70
2018-01-10T04:02:09.172Z,13.00
2018-01-10T04:04:37.740Z,14.33
2018-01-10T04:07:06.044Z,14.10
2018-01-10T04:09:34.320Z,13.97
2018-01-10T04:12:02.784Z,14.50
2018-01-10T04:14:31.065Z,15.70
2018-01-10T04:16:59.364Z,15.47
2018-01-10T04:19:27.668Z,13.90
2018-01-10T04:21:55.967Z,13.60
2018-01-10T04:24:24.242Z,16.90
2018-01-10T04:26:52.568Z,15.00
2018-01-10T04:29:21.107Z,14.07
2018-01-10T04:31:49.430Z,16.23
2018-01-10T04:34:17.715Z,14.60
2018-01-10T04:36:46.013Z,13.57
2018-01-10T04:39:14.616Z,13.30
2018-01-10T04:41:42.924Z,14.33
2018-01-10T04:44:11.196Z,15.00
2018-01-10T04:46:39.468Z,13.60
2018-01-10T04:49:07.771Z,14.07
2018-01-10T04:51:36.053Z,13.97
2018-01-10T04:54:04.357Z,12.10
2018-01-10T04:56:32.896Z,14.17
2018-01-10T04:59:01.193Z,14.27
2018-01-10T05:01:29.484Z,15.23
2018-01-10T05:03:57.786Z,15.80
2018-01-10T05:06:26.315Z,15.97
2018-01-10T05:08:55.195Z,15.80
2018-01-10T05:11:22.712Z,16.30
2018-01-10T05:13:50.264Z,14.70
2018-01-10T05:16:18.163Z,15.93
2018-01-10T05:18:46.458Z,15.57
2018-01-10T05:21:14.745Z,15.03
2018-01-10T05:23:43.055Z,15.63
2018-01-10T05:26:11.613Z,15.43
2018-01-10T05:28:39.920Z,16.37
2018-01-10T05:31:08.209Z,16.60
2018-01-10T05:33:36.521Z,14.53
2018-01-10T05:36:04.801Z,14.50
2018-01-10T05:38:33.094Z,14.93
2018-01-10T05:41:01.409Z,14.43
2018-01-10T05:43:29.965Z,14.37
2018-01-10T05:45:58.244Z,13.67
2018-01-10T05:48:26.540Z,14.40
2018-01-10T05:50:54.846Z,15.37
2018-01-10T05:53:23.996Z,14.10
2018-01-10T05:55:51.513Z,13.40
2018-01-10T05:58:19.831Z,14.50
2018-01-10T06:00:48.110Z,13.20
2018-01-10T06:03:16.799Z,12.63
2018-01-10T06:05:45.084Z,14.10
2018-01-10T06:08:13.364Z,14.13
2018-01-10T06:10:41.734Z,15.77
2018-01-10T06:13:10.012Z,15.30
2018-01-10T06:15:38.304Z,13.60
2018-01-10T06:18:06.588Z,13.63
2018-01-10T06:20:34.929Z,14.23
2018-01-10T06:23:03.207Z,13.63
2018-01-10T06:25:31.184Z,13.07
2018-01-10T06:27:59.447Z,13.57
2018-01-10T06:30:26.977Z,13.00
2018-01-10T06:32:55.667Z,14.57
2018-01-10T06:35:23.608Z,13.23
2018-01-10T06:37:51.885Z,12.43
2018-01-10T06:40:20.193Z,13.33
2018-01-10T06:42:49.034Z,12.23
2018-01-10T06:45:17.114Z,12.80
2018-01-10T06:47:45.383Z,13.90
2018-01-10T06:50:13.684Z,13.30
2018-01-10T06:52:41.958Z,12.37
2018-01-10T06:55:10.262Z,12.50
2018-01-10T06:57:38.572Z,12.40
2018-01-10T07:00:06.106Z,13.83
2018-01-10T07:02:34.014Z,13.37
2018-01-10T07:05:02.308Z,12.43
2018-01-10T07:07:30.673Z,13.20
2018-01-10T07:09:58.971Z,12.93
2018-01-10T07:12:27.252Z,13.20
2018-01-10T07:14:54.784Z,13.33
2018-01-10T07:17:23.063Z,14.47
2018-01-10T07:19:50.988Z,13.80
2018-01-10T07:22:19.285Z,12.83
2018-01-10T07:24:47.919Z,13.73
2018-01-10T07:27:16.440Z,14.00
2018-01-10T07:29:44.374Z,13.83
2018-01-10T07:32:12.689Z,15.00
2018-01-10T07:34:40.981Z,14.00
2018-01-10T07:37:09.260Z,14.07
2018-01-10T07:39:36.778Z,16.10
2018-01-10T07:42:04.713Z,13.50
2018-01-10T07:44:33.008Z,14.93
2018-01-10T07:47:01.392Z,15.10
2018-01-10T07:49:29.676Z,15.50
2018-01-10T07:51:58.232Z,15.07
2018-01-10T07:54:27.192Z,13.80
2018-01-10T07:56:54.728Z,14.23
2018-01-10T07:59:23.009Z,14.07
2018-01-10T08:01:52.044Z,14.53
2018-01-10T08:04:19.618Z,14.40
2018-01-10T08:06:47.153Z,14.83
2018-01-10T08:09:15.079Z,14.90
2018-01-10T08:11:43.373Z,14.13
2018-01-10T08:14:12.405Z,14.27
2018-01-10T08:16:39.937Z,13.53
2018-01-10T08:19:07.985Z,14.37
2018-01-10T08:21:35.928Z,15.37
2018-01-10T08:24:03.891Z,14.53
2018-01-10T08:26:32.189Z,14.77
2018-01-10T08:29:00.472Z,17.10
2018-01-10T08:31:28.773Z,15.53
2018-01-10T08:33:57.052Z,15.50
2018-01-10T08:36:25.341Z,15.80
2018-01-10T08:38:53.624Z,16.63
2018-01-10T08:41:21.932Z,16.00
2018-01-10T08:43:49.441Z,13.37
2018-01-10T08:46:17.670Z,13.40
2018-01-10T08:48:45.640Z,14.10
2018-01-10T08:51:13.180Z,14.50
2018-01-10T08:53:41.123Z,13.87
2018-01-10T08:56:09.407Z,14.17
2018-01-10T08:58:37.723Z,15.37
2018-01-10T09:01:06.023Z,12.80
2018-01-10T09:03:34.445Z,13.33
2018-01-10T09:06:02.740Z,11.40
2018-01-10T09:08:31.067Z,10.93
2018-01-10T09:10:59.344Z,10.87
2018-01-10T09:13:27.657Z,10.70
2018-01-10T09:15:55.977Z,10.73
2018-01-10T09:18:23.544Z,10.33
2018-01-10T09:20:51.465Z,11.67
2018-01-10T09:23:19.769Z,12.70
2018-01-10T09:25:48.091Z,14.20
2018-01-10T09:28:16.388Z,12.50
2018-01-10T09:30:44.670Z,12.93
2018-01-10T09:33:13.870Z,13.63
2018-01-10T09:35:41.381Z,12.70
2018-01-10T09:38:09.694Z,13.53
2018-01-10T09:40:37.977Z,13.20
2018-01-10T09:43:07.014Z,13.07
2018-01-10T09:45:34.944Z,13.90
2018-01-10T09:48:03.258Z,13.23
2018-01-10T09:50:31.540Z,13.43
2018-01-10T09:52:59.842Z,11.47
2018-01-10T09:55:28.560Z,12.40
2018-01-10T09:57:56.492Z,12.00
2018-01-10T10:00:24.785Z,13.23
2018-01-10T10:02:53.347Z,14.13
2018-01-10T10:05:21.932Z,14.43
2018-01-10T10:07:49.900Z,14.10
2018-01-10T10:10:18.187Z,14.20
2018-01-10T10:12:46.604Z,13.10
2018-01-10T10:15:14.891Z,13.00
2018-01-10T10:17:43.321Z,13.33
2018-01-10T10:20:11.673Z,14.20
2018-01-10T10:22:40.235Z,12.97
2018-01-10T10:25:08.240Z,13.60
2018-01-10T10:27:36.560Z,13.27
2018-01-10T10:30:04.878Z,11.60
2018-01-10T10:32:33.702Z,12.10
2018-01-10T10:35:02.093Z,12.80
2018-01-10T10:37:30.008Z,12.80
2018-01-10T10:39:58.328Z,12.80
2018-01-10T10:42:26.617Z,13.37
2018-01-10T10:44:54.972Z,14.57
2018-01-10T10:47:24.225Z,12.10
2018-01-10T10:49:51.978Z,11.80
2018-01-10T10:52:20.019Z,12.43
2018-01-10T10:54:48.326Z,12.80
2018-01-10T10:57:16.628Z,11.97
2018-01-10T10:59:45.024Z,11.10
2018-01-10T11:02:13.435Z,11.83
2018-01-10T11:04:42.593Z,11.10
2018-01-10T11:07:10.124Z,11.10
2018-01-10T11:09:38.492Z,11.30
2018-01-10T11:12:07.830Z,11.10
2018-01-10T11:14:35.413Z,12.30
2018-01-10T11:17:04.349Z,12.80
2018-01-10T11:19:31.901Z,12.23
2018-01-10T11:22:00.189Z,13.27
2018-01-10T11:24:28.496Z,12.27
2018-01-10T11:26:56.783Z,10.50
2018-01-10T11:29:26.056Z,11.70
2018-01-10T11:31:53.573Z,12.03
2018-01-10T11:34:21.876Z,11.30
2018-01-10T11:36:50.154Z,10.47
2018-01-10T11:39:18.469Z,10.40
2018-01-10T11:41:46.762Z,10.50
2018-01-10T11:44:15.077Z,9.00
2018-01-10T11:46:43.408Z,8.40
2018-01-10T11:49:10.956Z,9.87
2018-01-10T11:51:39.242Z,8.90
2018-01-10T11:54:07.158Z,10.03
2018-01-10T11:56:35.490Z,8.60
2018-01-10T11:59:03.780Z,10.07
2018-01-10T12:01:32.380Z,8.90
2018-01-10T12:04:00.685Z,9.93
2018-01-10T12:06:28.986Z,9.57
2018-01-10T12:08:57.267Z,10.00
2018-01-10T12:11:26.312Z,9.57
2018-01-10T12:13:53.914Z,9.53
2018-01-10T12:16:22.216Z,9.23
2018-01-10T12:18:51.250Z,9.70
2018-01-10T12:21:18.790Z,9.03
2018-01-10T12:23:47.108Z,10.30
2018-01-10T12:26:15.413Z,9.10
2018-01-10T12:28:43.697Z,9.50
2018-01-10T12:31:11.237Z,9.20
2018-01-10T12:33:39.145Z,8.50
2018-01-10T12:36:07.446Z,9.83
2018-01-10T12:38:34.961Z,8.97
2018-01-10T12:41:02.916Z,10.00
2018-01-10T12:43:31.272Z,8.97
2018-01-10T12:45:59.572Z,9.40
2018-01-10T12:48:27.854Z,10.60
2018-01-10T12:50:56.306Z,9.40
2018-01-10T12:53:24.604Z,9.90
2018-01-10T12:55:52.899Z,10.20
2018-01-10T12:58:21.342Z,9.70
2018-01-10T13:00:49.641Z,9.43
2018-01-10T13:03:17.924Z,9.90
2018-01-10T13:05:46.230Z,9.50
2018-01-10T13:08:14.534Z,10.30
2018-01-10T13:10:42.846Z,11.00
2018-01-10T13:13:10.361Z,9.40
2018-01-10T13:15:38.286Z,10.03
2018-01-10T13:18:06.629Z,10.07
2018-01-10T13:20:35.043Z,9.50
2018-01-10T13:23:03.353Z,9.73
2018-01-10T13:25:31.693Z,9.70
2018-01-10T13:27:59.997Z,8.67
2018-01-10T13:30:28.462Z,8.80
2018-01-10T13:32:57.281Z,7.87
2018-01-10T13:35:24.798Z,8.20
2018-01-10T13:37:53.665Z,7.70
2018-01-10T13:40:22.388Z,7.80
2018-01-10T13:42:49.935Z,8.60
2018-01-10T13:45:18.220Z,7.10
2018-01-10T13:47:46.525Z,8.30
2018-01-10T13:50:14.033Z,7.67
2018-01-10T13:52:41.993Z,8.07
2018-01-10T13:55:09.508Z,7.80
2018-01-10T13:57:37.442Z,7.70
2018-01-10T14:00:05.725Z,7.40
2018-01-10T14:02:34.037Z,8.50
2018-01-10T14:05:03.057Z,7.67
2018-01-10T14:07:30.606Z,8.30
2018-01-10T14:09:58.922Z,7.93
2018-01-10T14:12:27.226Z,7.60
2018-01-10T14:14:55.505Z,9.70
2018-01-10T14:17:23.041Z,10.60
2018-01-10T14:19:50.970Z,9.50
2018-01-10T14:22:19.269Z,10.33
2018-01-10T14:24:47.553Z,9.50
2018-01-10T14:27:15.091Z,10.00
2018-01-10T14:29:43.001Z,9.33
2018-01-10T14:32:11.280Z,9.50
2018-01-10T14:34:39.833Z,8.90
2018-01-10T14:37:08.113Z,9.50
2018-01-10T14:39:36.418Z,8.93
2018-01-10T14:42:04.709Z,9.50
2018-01-10T14:44:33.004Z,9.70
2018-01-10T14:47:01.287Z,9.77
2018-01-10T14:49:29.894Z,10.20
2018-01-10T14:51:58.229Z,9.67
2018-01-10T14:54:26.529Z,9.70
2018-01-10T14:56:55.565Z,9.57
2018-01-10T14:59:23.425Z,8.77
2018-01-10T15:01:51.557Z,7.73
2018-01-10T15:04:19.862Z,7.30
2018-01-10T15:06:48.175Z,8.40
2018-01-10T15:09:16.489Z,8.83
2018-01-10T15:11:44.773Z,9.37
2018-01-10T15:14:13.091Z,10.03
2018-01-10T15:16:41.753Z,8.90
2018-01-10T15:19:09.932Z,9.00
2018-01-10T15:21:38.225Z,10.30
2018-01-10T15:24:07.517Z,11.37
2018-01-10T15:26:35.852Z,10.33
2018-01-10T15:29:03.781Z,10.97
2018-01-10T15:31:32.061Z,10.07
2018-01-10T15:33:59.996Z,10.27
2018-01-10T15:36:28.330Z,11.07
2018-01-10T15:38:56.629Z,9.30
2018-01-10T15:41:24.913Z,10.67
2018-01-10T15:43:53.276Z,10.57
2018-01-10T15:46:21.530Z,9.60
2018-01-10T15:48:49.834Z,10.30
2018-01-10T15:51:18.201Z,9.30
2018-01-10T15:53:46.536Z,9.20
2018-01-10T15:56:15.024Z,9.67
2018-01-10T15:58:43.333Z,9.97
2018-01-10T16:01:11.612Z,13.40
2018-01-10T16:03:39.929Z,13.60
2018-01-10T16:06:08.961Z,13.50
2018-01-10T16:08:36.513Z,15.67
2018-01-10T16:11:05.541Z,17.83
2018-01-10T16:13:33.458Z,18.70
2018-01-10T16:16:01.757Z,15.10
2018-01-10T16:18:30.041Z,14.50
2018-01-10T16:20:58.344Z,11.60
2018-01-10T16:23:26.632Z,11.70
2018-01-10T16:25:55.173Z,12.07
2018-01-10T16:28:23.460Z,10.30
2018-01-10T16:30:51.773Z,10.87
2018-01-10T16:33:20.058Z,11.23
2018-01-10T16:35:48.372Z,12.63
2018-01-10T16:38:16.661Z,11.70
2018-01-10T16:40:45.203Z,12.10
2018-01-10T16:43:13.126Z,12.47
2018-01-10T16:45:41.731Z,12.03
2018-01-10T16:48:10.122Z,12.67
2018-01-10T16:50:38.435Z,10.90
2018-01-10T16:53:06.718Z,10.90
2018-01-10T16:55:35.069Z,10.63
2018-01-10T16:58:03.371Z,10.00
2018-01-10T17:00:31.693Z,10.70
2018-01-10T17:02:59.980Z,11.50
2018-01-10T17:05:29.255Z,11.67
2018-01-10T17:07:56.803Z,12.80
2018-01-10T17:10:25.528Z,11.93
2018-01-10T17:12:53.452Z,11.40
2018-01-10T17:15:21.779Z,11.87
2018-01-10T17:17:50.097Z,10.57
2018-01-10T17:20:18.390Z,10.43
2018-01-10T17:22:46.705Z,11.43
2018-01-10T17:25:14.993Z,12.70
2018-01-10T17:27:43.366Z,11.77
2018-01-10T17:30:11.665Z,9.40
2018-01-10T17:32:39.977Z,10.60
2018-01-10T17:35:08.418Z,10.60
2018-01-10T17:37:37.097Z,11.47
2018-01-10T17:40:05.013Z,9.53
2018-01-10T17:42:34.176Z,10.60
2018-01-10T17:45:01.696Z,9.40
2018-01-10T17:47:30.016Z,9.47
2018-01-10T17:49:58.306Z,9.93
2018-01-10T17:52:26.618Z,9.30
2018-01-10T17:54:54.962Z,10.00
2018-01-10T17:57:23.260Z,8.27
2018-01-10T17:59:51.586Z,9.30
2018-01-10T18:02:20.070Z,8.90
2018-01-10T18:04:48.921Z,8.97
2018-01-10T18:07:16.858Z,11.50
2018-01-10T18:09:45.142Z,24.20
2018-01-10T18:12:13.449Z,22.47
2018-01-10T18:14:41.735Z,24.37
2018-01-10T18:17:10.038Z,36.00
2018-01-10T18:19:38.332Z,50.50
2018-01-10T18:22:06.642Z,24.63
2018-01-10T18:24:34.935Z,14.73
2018-01-10T18:27:03.254Z,10.30
2018-01-10T18:29:31.553Z,14.30
2018-01-10T18:31:59.867Z,13.03
2018-01-10T18:34:28.140Z,12.57
2018-01-10T18:36:55.712Z,13.13
2018-01-10T18:39:23.632Z,12.07
2018-01-10T18:41:52.172Z,15.03
2018-01-10T18:44:20.490Z,13.93
2018-01-10T18:46:48.773Z,14.07
2018-01-10T18:49:17.092Z,12.13
2018-01-10T18:51:45.377Z,13.73
2018-01-10T18:54:13.676Z,13.43
2018-01-10T18:56:42.473Z,14.70
2018-01-10T18:59:10.412Z,13.90
2018-01-10T19:01:38.693Z,12.20
2018-01-10T19:04:06.990Z,11.30
2018-01-10T19:06:34.510Z,12.30
2018-01-10T19:09:02.447Z,10.40
2018-01-10T19:11:31.995Z,12.00
2018-01-10T19:13:59.549Z,12.20
2018-01-10T19:16:27.469Z,14.30
2018-01-10T19:18:55.772Z,12.93
2018-01-10T19:21:24.051Z,12.07
2018-01-10T19:23:52.352Z,14.93
2018-01-10T19:26:20.705Z,16.17
2018-01-10T19:28:49.025Z,17.00
2018-01-10T19:31:17.335Z,15.77
2018-01-10T19:33:45.639Z,15.80
2018-01-10T19:36:13.926Z,14.80
2018-01-10T19:38:41.457Z,16.83
2018-01-10T19:41:09.395Z,16.40
2018-01-10T19:43:37.680Z,14.47
2018-01-10T19:46:05.952Z,12.37
2018-01-10T19:48:34.241Z,13.10
2018-01-10T19:51:02.530Z,14.33
2018-01-10T19:53:30.950Z,13.53
2018-01-10T19:55:59.235Z,12.50
2018-01-10T19:58:27.572Z,11.47
2018-01-10T20:00:55.845Z,12.13
2018-01-10T20:03:24.274Z,11.20
2018-01-10T20:05:53.305Z,11.23
2018-01-10T20:08:20.885Z,12.00
2018-01-10T20:10:49.364Z,10.77
2018-01-10T20:13:17.777Z,11.43
2018-01-10T20:15:46.632Z,11.60
2018-01-10T20:18:14.298Z,12.27
2018-01-10T20:20:42.601Z,13.00
2018-01-10T20:23:11.549Z,12.77
2018-01-10T20:25:39.221Z,15.53
2018-01-10T20:28:07.494Z,15.97
2018-01-10T20:30:35.909Z,13.93
2018-01-10T20:33:04.222Z,13.67
2018-01-10T20:35:32.517Z,13.07
2018-01-10T20:38:00.788Z,11.77
2018-01-10T20:40:29.096Z,11.73
2018-01-10T20:42:57.701Z,11.40
2018-01-10T20:45:25.655Z,11.07
2018-01-10T20:47:53.192Z,11.83
2018-01-10T20:50:21.116Z,10.80
2018-01-10T20:52:49.412Z,12.77
2018-01-10T20:55:17.766Z,10.80
2018-01-10T20:57:46.041Z,10.20
2018-01-10T21:00:14.351Z,11.33
2018-01-10T21:02:42.649Z,12.80
2018-01-10T21:05:11.198Z,13.80
2018-01-10T21:07:39.524Z,10.97
2018-01-10T21:10:07.830Z,9.60
2018-01-10T21:12:36.105Z,8.70
2018-01-10T21:15:04.400Z,9.67
2018-01-10T21:17:32.696Z,10.50
